createdAt,value
2022-10-18T00:04:41.383Z,7.28
2022-10-18T00:09:43.895Z,4.93
2022-10-18T00:14:49.637Z,5.00
2022-10-18T00:19:53.724Z,6.90
2022-10-18T00:24:56.234Z,6.43
2022-10-18T00:29:59.329Z,3.35
2022-10-18T00:35:03.433Z,5.47
2022-10-18T00:40:07.187Z,10.45
2022-10-18T00:45:20.015Z,4.57
2022-10-18T00:50:25.334Z,3.63
2022-10-18T00:55:29.447Z,3.88
2022-10-18T01:00:32.183Z,3.80
2022-10-18T01:05:39.297Z,5.32
2022-10-18T01:10:50.901Z,4.75
2022-10-18T01:16:00.754Z,8.98
2022-10-18T01:21:24.081Z,6.90
2022-10-18T01:26:40.658Z,5.47
2022-10-18T01:31:48.982Z,3.88
2022-10-18T01:36:55.141Z,4.57
2022-10-18T01:42:01.042Z,4.03
2022-10-18T01:47:08.118Z,6.05
2022-10-18T01:52:13.320Z,5.68
2022-10-18T01:57:25.774Z,4.80
2022-10-18T02:02:42.164Z,6.45
2022-10-18T02:08:00.173Z,10.98
2022-10-18T02:13:17.049Z,5.68
2022-10-18T02:18:26.378Z,4.03
2022-10-18T02:23:29.193Z,6.93
2022-10-18T02:28:32.522Z,5.97
2022-10-18T02:33:44.431Z,6.53
2022-10-18T02:38:48.348Z,5.70
2022-10-18T02:43:50.923Z,5.13
2022-10-18T02:48:54.835Z,6.57
2022-10-18T02:53:57.379Z,6.82
2022-10-18T02:59:00.049Z,7.20
2022-10-18T03:04:05.070Z,4.35
2022-10-18T03:09:08.362Z,4.88
2022-10-18T03:14:10.983Z,7.25
2022-10-18T03:19:15.136Z,5.30
2022-10-18T03:24:18.164Z,6.32
2022-10-18T03:29:20.812Z,6.53
2022-10-18T03:34:24.850Z,6.38
2022-10-18T03:39:27.465Z,6.72
2022-10-18T03:44:30.083Z,3.40
2022-10-18T03:54:41.610Z,5.90
2022-10-18T03:59:44.438Z,5.43
2022-10-18T04:04:48.327Z,9.35
2022-10-18T04:09:50.961Z,6.07
2022-10-18T04:14:55.397Z,5.28
2022-10-18T04:19:59.600Z,6.15
2022-10-18T04:25:02.279Z,6.30
2022-10-18T04:30:05.837Z,4.30
2022-10-18T04:35:11.438Z,6.13
2022-10-18T04:40:13.989Z,6.75
2022-10-18T04:45:16.944Z,5.68
2022-10-18T04:50:21.114Z,5.78
2022-10-18T04:55:23.701Z,6.07
2022-10-18T05:00:26.456Z,5.28
2022-10-18T05:05:49.841Z,9.73
2022-10-18T05:10:53.077Z,7.35
2022-10-18T05:15:55.876Z,5.95
2022-10-18T05:21:00.219Z,4.40
2022-10-18T05:31:07.939Z,7.22
2022-10-18T05:36:12.154Z,9.48
2022-10-18T05:46:20.084Z,6.53
2022-10-18T05:51:26.601Z,6.13
2022-10-18T05:56:31.626Z,5.97
2022-10-18T06:01:34.293Z,8.82
2022-10-18T06:06:38.607Z,6.95
2022-10-18T06:16:43.817Z,10.98
2022-10-18T06:21:47.923Z,9.85
2022-10-18T06:26:50.939Z,11.30
2022-10-18T06:31:53.521Z,14.63
2022-10-18T06:36:58.779Z,17.63
2022-10-18T06:42:01.472Z,20.48
2022-10-18T06:47:04.220Z,17.70
2022-10-18T06:52:08.366Z,18.50
2022-10-18T06:57:11.250Z,16.35
2022-10-18T07:02:16.713Z,11.80
2022-10-18T07:07:21.452Z,16.48
2022-10-18T07:12:23.974Z,15.02
2022-10-18T07:17:26.567Z,23.38
2022-10-18T07:22:30.631Z,28.10
2022-10-18T07:27:36.782Z,23.83
2022-10-18T07:32:39.340Z,22.42
2022-10-18T07:37:47.215Z,21.77
2022-10-18T07:42:49.908Z,22.60
2022-10-18T07:47:55.730Z,16.10
2022-10-18T07:52:59.657Z,13.27
2022-10-18T07:58:02.383Z,12.07
2022-10-18T08:03:05.437Z,12.70
2022-10-18T08:08:09.349Z,12.93
2022-10-18T08:13:11.893Z,12.80
2022-10-18T08:18:14.622Z,11.05
2022-10-18T08:23:19.665Z,13.93
2022-10-18T08:28:22.318Z,9.98
2022-10-18T08:33:24.880Z,11.27
2022-10-18T08:38:30.644Z,9.88
2022-10-18T08:43:39.669Z,7.20
2022-10-18T08:48:46.332Z,8.02
2022-10-18T08:53:58.001Z,6.00
2022-10-18T08:59:03.126Z,6.82
2022-10-18T09:04:20.396Z,9.63
2022-10-18T09:09:47.618Z,8.43
2022-10-18T09:15:05.478Z,8.73
2022-10-18T09:20:21.863Z,7.88
2022-10-18T09:25:28.511Z,6.97
2022-10-18T09:30:41.654Z,6.13
2022-10-18T09:35:50.514Z,6.63
2022-10-18T09:40:59.027Z,6.82
2022-10-18T09:46:03.185Z,8.48
2022-10-18T09:51:12.179Z,9.60
2022-10-18T09:56:20.855Z,7.30
2022-10-18T10:01:26.314Z,6.15
2022-10-18T10:06:30.548Z,6.35
2022-10-18T10:16:49.691Z,6.47
2022-10-18T10:21:57.727Z,6.65
2022-10-18T10:27:04.138Z,6.72
2022-10-18T10:32:06.708Z,8.73
2022-10-18T10:37:26.142Z,8.30
2022-10-18T10:42:31.223Z,8.52
2022-10-18T10:47:35.382Z,11.13
2022-10-18T10:52:41.353Z,9.40
2022-10-18T10:57:47.099Z,8.05
2022-10-18T11:02:59.329Z,6.40
2022-10-18T11:08:14.527Z,5.70
2022-10-18T11:13:29.127Z,5.55
2022-10-18T11:18:35.054Z,5.55
2022-10-18T11:23:40.214Z,7.75
2022-10-18T11:29:02.182Z,7.07
2022-10-18T11:34:20.757Z,8.65
2022-10-18T11:39:31.037Z,7.43
2022-10-18T11:44:40.776Z,7.45
2022-10-18T11:49:58.393Z,8.90
2022-10-18T11:55:13.509Z,10.02
2022-10-18T12:05:39.310Z,3.25
2022-10-18T12:11:03.518Z,4.50
2022-10-18T12:16:12.523Z,4.18
2022-10-18T12:21:15.245Z,2.05
2022-10-18T12:26:18.786Z,3.17
2022-10-18T12:31:27.447Z,1.73
2022-10-18T12:36:54.992Z,2.67
2022-10-18T12:41:58.538Z,4.50
2022-10-18T12:47:05.428Z,2.08
2022-10-18T12:52:21.602Z,3.03
2022-10-18T12:57:26.160Z,2.88
2022-10-18T13:02:32.344Z,4.60
2022-10-18T13:07:43.255Z,1.70
2022-10-18T13:12:59.573Z,2.67
2022-10-18T13:18:15.775Z,2.72
2022-10-18T13:23:41.311Z,4.57
2022-10-18T13:28:54.381Z,2.25
2022-10-18T13:34:19.109Z,2.22
2022-10-18T13:39:23.251Z,2.63
2022-10-18T13:49:45.739Z,3.80
2022-10-18T13:55:02.017Z,1.23
2022-10-18T14:00:18.275Z,1.30
2022-10-18T14:05:54.649Z,1.10
2022-10-18T14:11:05.787Z,1.10
2022-10-18T14:16:25.398Z,1.80
2022-10-18T14:21:38.212Z,1.45
2022-10-18T14:26:41.354Z,2.37
2022-10-18T14:31:44.488Z,1.85
2022-10-18T14:36:50.075Z,2.20
2022-10-18T14:41:55.070Z,2.70
2022-10-18T14:47:02.656Z,4.80
2022-10-18T14:52:09.556Z,4.22
2022-10-18T14:57:19.434Z,4.43
2022-10-18T15:02:24.978Z,8.40
2022-10-18T15:07:30.348Z,5.70
2022-10-18T15:12:37.081Z,7.68
2022-10-18T15:17:44.672Z,5.22
2022-10-18T15:22:48.894Z,6.20
2022-10-18T15:27:53.899Z,5.30
2022-10-18T15:32:58.796Z,5.75
2022-10-18T15:38:15.032Z,6.10
2022-10-18T15:43:37.848Z,6.63
2022-10-18T15:48:42.025Z,7.28
2022-10-18T15:58:56.915Z,8.82
2022-10-18T16:04:02.371Z,7.40
2022-10-18T16:09:14.119Z,7.97
2022-10-18T16:14:16.949Z,9.00
2022-10-18T16:19:21.949Z,8.68
2022-10-18T16:24:25.910Z,8.85
2022-10-18T16:29:32.221Z,8.77
2022-10-18T16:34:34.830Z,8.68
2022-10-18T16:39:38.734Z,8.25
2022-10-18T16:44:41.253Z,7.15
2022-10-18T16:49:45.125Z,7.03
2022-10-18T16:54:49.624Z,5.88
2022-10-18T16:59:52.429Z,4.93
2022-10-18T17:04:55.140Z,4.97
2022-10-18T17:09:59.056Z,6.95
2022-10-18T17:15:01.691Z,5.57
2022-10-18T17:20:06.582Z,7.32
2022-10-18T17:25:11.747Z,6.38
2022-10-18T17:30:15.495Z,6.13
2022-10-18T17:35:19.000Z,7.82
2022-10-18T17:40:23.994Z,8.85
2022-10-18T17:45:27.199Z,10.60
2022-10-18T17:50:30.167Z,7.50
2022-10-18T17:55:34.984Z,7.82
2022-10-18T18:00:37.631Z,11.02
2022-10-18T18:05:42.288Z,10.02
2022-10-18T18:10:46.570Z,31.48
2022-10-18T18:20:55.040Z,9.98
2022-10-18T18:25:59.931Z,7.70
2022-10-18T18:31:06.708Z,9.88
2022-10-18T18:36:10.363Z,8.98
2022-10-18T18:41:17.840Z,10.55
2022-10-18T18:46:20.592Z,11.63
2022-10-18T18:51:24.659Z,9.05
2022-10-18T18:56:29.792Z,9.02
2022-10-18T19:01:34.287Z,11.48
2022-10-18T19:06:38.930Z,12.15
2022-10-18T19:11:42.906Z,9.43
2022-10-18T19:16:48.546Z,12.27
2022-10-18T19:21:53.034Z,11.55
2022-10-18T19:26:59.109Z,11.02
2022-10-18T19:32:03.968Z,13.27
2022-10-18T19:37:06.662Z,10.57
2022-10-18T19:42:15.762Z,12.68
2022-10-18T19:47:21.502Z,12.18
2022-10-18T19:52:24.068Z,13.15
2022-10-18T19:57:28.817Z,12.93
2022-10-18T20:02:31.830Z,12.18
2022-10-18T20:07:34.612Z,15.50
2022-10-18T20:12:38.669Z,22.08
2022-10-18T20:17:41.720Z,17.73
2022-10-18T20:22:44.356Z,17.08
2022-10-18T20:27:48.343Z,17.85
2022-10-18T20:32:52.548Z,18.48
2022-10-18T20:37:55.114Z,18.75
2022-10-18T20:43:03.618Z,17.48
2022-10-18T20:48:06.719Z,19.30
2022-10-18T20:53:09.424Z,18.10
2022-10-18T20:58:13.987Z,14.75
2022-10-18T21:03:16.560Z,15.50
2022-10-18T21:08:19.124Z,13.10
2022-10-18T21:13:23.376Z,12.80
2022-10-18T21:18:26.559Z,12.40
2022-10-18T21:23:29.190Z,19.88
2022-10-18T21:28:33.276Z,13.45
2022-10-18T21:33:35.922Z,15.25
2022-10-18T21:38:39.004Z,18.55
2022-10-18T21:43:44.690Z,17.83
2022-10-18T21:48:49.019Z,13.02
2022-10-18T21:53:54.370Z,13.98
2022-10-18T21:58:59.085Z,11.00
2022-10-18T22:04:02.821Z,11.70
2022-10-18T22:09:08.708Z,9.02
2022-10-18T22:14:12.947Z,12.55
2022-10-18T22:19:15.667Z,9.35
2022-10-18T22:24:18.471Z,16.42
2022-10-18T22:29:22.727Z,12.05
2022-10-18T22:34:27.726Z,8.85
2022-10-18T22:39:30.444Z,11.98
2022-10-18T22:44:34.986Z,18.70
2022-10-18T22:54:40.057Z,13.25
2022-10-18T22:59:44.065Z,15.15
2022-10-18T23:04:46.632Z,20.85
2022-10-18T23:09:49.184Z,11.05
2022-10-18T23:14:53.102Z,13.68
2022-10-18T23:19:56.056Z,14.43
2022-10-18T23:24:58.686Z,11.80
2022-10-18T23:30:02.986Z,12.88
2022-10-18T23:35:06.410Z,9.40
2022-10-18T23:40:10.714Z,13.32
2022-10-18T23:45:14.650Z,12.27
2022-10-18T23:50:17.437Z,13.20
2022-10-18T23:55:20.325Z,11.50
